KDCA/DCA METAR and TAF weather

Enter ICAO airport designator
Station Type Date Time Source
KDCA METAR 2022/12/04 10:52 UTC NOAA

KDCA 041052Z 36010KT 10SM CLR 03/M03 A3027 RMK AO2 SLP250 T00331033 $


Station Type Date Time Source
KDCA Decoded METAR 2022/12/04 10:52 UTC NOAA

WASHINGTON NATIONAL AIRPORT , VA, United States (KDCA) 38-51N 077-02W 18M
Dec 04, 2022 - 05:52 AM EST / 2022.12.04 1052 UTC
Wind: from the N (360 degrees) at 12 MPH (10 KT):0
Visibility: 10 mile(s):0
Sky conditions: clear
Temperature: 37.9 F (3.3 C)
Dew Point: 26.1 F (-3.3 C)
Relative Humidity: 61%
Pressure (altimeter): 30.27 in. Hg (1025 hPa)
ob: KDCA 041052Z 36010KT 10SM CLR 03/M03 A3027 RMK AO2 SLP250 T00331033
cycle: 11

Station Type Date Time Source
KDCA TAF 2022/12/04 12:36 UTC NOAA

TAF KDCA 041133Z 0412/0518 36010KT P6SM SKC
FM041400 35009KT P6SM FEW250
FM042000 28008KT P6SM SKC
FM050400 16003KT P6SM SKC
FM051000 18004KT P6SM FEW250

Example: see airport list